Time;durP1;ratioP1;P1;durP2;ratioP2;P2;SDS_P1;SDS_P2;PMS_P1;PMS_P2;Temp;Humidity;BMP_temperature;BMP_pressure;BME280_temperature;BME280_humidity;BME280_pressure;Samples;Min_cycle;Max_cycle;Signal;HPM_P1;HPM_P2
2023/05/05 00:00:15;;;;;;;13.97;10.10;;;14.60;99.90;;;;;;4915806;29;20259;-78
2023/05/05 00:02:42;;;;;;;11.73;9.30;;;14.70;99.90;;;;;;4914497;29;20292;-78
2023/05/05 00:05:09;;;;;;;13.80;9.70;;;14.70;99.90;;;;;;4915737;29;20206;-78
2023/05/05 00:07:36;;;;;;;11.47;8.83;;;14.60;99.90;;;;;;4918979;29;20406;-78
2023/05/05 00:10:03;;;;;;;13.77;9.90;;;14.60;99.90;;;;;;4918883;29;20586;-78
2023/05/05 00:12:30;;;;;;;12.83;10.43;;;14.60;99.90;;;;;;4915558;29;20212;-78
2023/05/05 00:14:57;;;;;;;15.80;10.23;;;14.50;99.90;;;;;;4914120;29;20226;-77
2023/05/05 00:17:24;;;;;;;15.70;9.47;;;14.50;99.90;;;;;;4913800;29;20202;-79
2023/05/05 00:19:51;;;;;;;13.33;9.50;;;14.50;99.90;;;;;;4915347;29;20329;-79
2023/05/05 00:22:18;;;;;;;16.70;10.17;;;14.40;99.90;;;;;;4917431;29;20217;-78
2023/05/05 00:24:44;;;;;;;14.17;10.50;;;14.40;99.90;;;;;;4916003;29;20210;-77
2023/05/05 00:27:11;;;;;;;13.10;9.57;;;14.30;99.90;;;;;;4915479;29;20202;-77
2023/05/05 00:29:38;;;;;;;16.77;9.70;;;14.40;99.90;;;;;;4914828;29;20257;-77
2023/05/05 00:32:05;;;;;;;17.87;10.43;;;14.40;99.90;;;;;;4897745;29;20702;-78
2023/05/05 00:34:31;;;;;;;14.37;10.33;;;14.40;99.90;;;;;;4915194;29;20500;-78
2023/05/05 00:36:58;;;;;;;13.60;10.03;;;14.40;99.90;;;;;;4916241;29;20363;-77
2023/05/05 00:39:25;;;;;;;13.63;9.70;;;14.40;99.90;;;;;;4916397;29;20221;-77
2023/05/05 00:41:52;;;;;;;15.87;10.63;;;14.40;99.90;;;;;;4917146;29;20587;-77
2023/05/05 00:44:35;;;;;;;13.70;9.90;;;14.50;99.90;;;;;;4915162;29;20226;-78
2023/05/05 00:47:02;;;;;;;16.90;10.03;;;14.50;99.90;;;;;;4915120;29;20236;-78
2023/05/05 00:49:29;;;;;;;14.77;10.27;;;14.40;99.90;;;;;;4914595;29;20206;-79
2023/05/05 00:51:56;;;;;;;13.50;9.93;;;14.60;99.90;;;;;;4915533;29;20202;-77
2023/05/05 00:54:23;;;;;;;15.67;10.30;;;14.50;99.90;;;;;;4916145;29;20303;-78
2023/05/05 00:56:50;;;;;;;14.43;10.30;;;14.50;99.90;;;;;;4896646;29;20290;-78
2023/05/05 00:59:17;;;;;;;13.13;9.43;;;14.50;99.90;;;;;;4891576;29;20634;-78
2023/05/05 01:01:45;;;;;;;14.73;9.90;;;14.50;99.90;;;;;;4891970;29;20215;-79
2023/05/05 01:04:12;;;;;;;15.47;10.27;;;14.50;99.90;;;;;;4891556;29;20218;-77
2023/05/05 01:07:07;;;;;;;13.70;10.50;;;14.40;99.90;;;;;;4899226;29;20212;-78
2023/05/05 01:09:54;;;;;;;14.73;10.30;;;14.40;99.90;;;;;;4895681;29;20214;-78
2023/05/05 01:13:18;;;;;;;15.60;10.60;;;14.40;99.90;;;;;;4897559;29;20249;-79
2023/05/05 01:16:02;;;;;;;13.20;10.10;;;14.40;99.90;;;;;;4891584;29;20232;-80
2023/05/05 01:18:51;;;;;;;15.30;11.07;;;14.40;99.90;;;;;;4898790;29;20265;-79
2023/05/05 01:21:38;;;;;;;15.47;11.10;;;14.40;99.90;;;;;;4891134;29;20226;-79
2023/05/05 01:24:19;;;;;;;16.00;10.33;;;14.30;99.90;;;;;;4895992;29;20296;-77
2023/05/05 01:27:01;;;;;;;14.57;10.30;;;14.30;99.90;;;;;;4892684;29;20211;-79
2023/05/05 01:30:02;;;;;;;14.10;10.53;;;14.30;99.90;;;;;;4894925;29;20228;-78
2023/05/05 01:32:34;;;;;;;15.30;10.83;;;14.30;99.90;;;;;;4902545;29;20213;-78
2023/05/05 01:35:14;;;;;;;15.37;9.97;;;14.30;99.90;;;;;;4894242;29;20270;-79
2023/05/05 01:37:49;;;;;;;13.60;10.53;;;14.30;99.90;;;;;;4897858;29;20250;-79
2023/05/05 01:40:21;;;;;;;15.30;10.80;;;14.30;99.90;;;;;;4895252;29;20544;-77
2023/05/05 01:42:50;;;;;;;17.10;11.10;;;14.30;99.90;;;;;;4890928;29;20262;-77
2023/05/05 01:45:23;;;;;;;14.57;10.00;;;14.30;99.90;;;;;;4894489;29;20310;-79
2023/05/05 01:47:52;;;;;;;15.80;10.90;;;14.30;99.90;;;;;;4892823;29;20206;-78
2023/05/05 01:50:23;;;;;;;16.47;10.87;;;14.30;99.90;;;;;;4895773;29;20206;-79
2023/05/05 01:52:51;;;;;;;14.10;9.40;;;14.40;99.90;;;;;;4894680;29;20238;-78
2023/05/05 01:55:19;;;;;;;15.50;11.10;;;14.30;99.90;;;;;;4898832;29;20246;-78
2023/05/05 01:57:47;;;;;;;13.73;10.43;;;14.40;99.90;;;;;;4913657;29;20262;-79
2023/05/05 02:00:16;;;;;;;14.50;10.23;;;14.40;99.90;;;;;;4895916;29;20686;-79
2023/05/05 02:02:46;;;;;;;15.57;10.03;;;14.40;99.90;;;;;;4911775;29;20266;-79
2023/05/05 02:05:14;;;;;;;16.63;10.73;;;14.40;99.90;;;;;;4913255;29;20206;-78
2023/05/05 02:07:42;;;;;;;11.77;9.43;;;14.50;99.90;;;;;;4915456;29;20313;-77
2023/05/05 02:10:11;;;;;;;16.40;10.60;;;14.40;99.90;;;;;;4893635;29;20242;-78
2023/05/05 02:12:41;;;;;;;13.37;9.97;;;14.50;99.90;;;;;;4913461;29;20214;-77
2023/05/05 02:15:09;;;;;;;16.87;10.23;;;14.50;99.90;;;;;;4913364;29;20285;-77
2023/05/05 02:17:39;;;;;;;15.00;10.47;;;14.70;99.90;;;;;;4913395;29;20297;-78
2023/05/05 02:20:08;;;;;;;14.97;10.40;;;14.60;99.90;;;;;;4903980;29;20725;-77
2023/05/05 02:22:35;;;;;;;16.67;10.53;;;14.60;99.90;;;;;;4909818;29;20245;-79
2023/05/05 02:25:02;;;;;;;14.33;10.00;;;14.60;99.90;;;;;;4894417;29;20209;-79
2023/05/05 02:27:32;;;;;;;13.37;9.60;;;14.70;99.90;;;;;;4913632;29;20210;-78
2023/05/05 02:30:05;;;;;;;16.30;10.53;;;14.70;99.90;;;;;;4894248;29;20318;-79
2023/05/05 02:32:35;;;;;;;15.50;10.47;;;14.70;99.90;;;;;;4919595;29;20289;-78
2023/05/05 02:35:09;;;;;;;16.77;10.47;;;14.80;99.90;;;;;;4915915;29;20660;-78
2023/05/05 02:37:38;;;;;;;17.53;11.40;;;14.80;99.90;;;;;;4911568;29;20674;-78
2023/05/05 02:40:07;;;;;;;16.37;11.77;;;14.90;99.90;;;;;;4913490;29;20312;-78
2023/05/05 02:42:38;;;;;;;18.77;11.83;;;14.90;99.90;;;;;;4913490;29;20269;-80
2023/05/05 02:45:13;;;;;;;17.30;11.03;;;15.00;99.90;;;;;;4912844;29;20301;-79
2023/05/05 02:47:40;;;;;;;15.40;12.07;;;15.00;99.90;;;;;;4896475;29;20206;-78
2023/05/05 02:50:08;;;;;;;16.97;11.97;;;15.10;99.90;;;;;;4913101;29;20212;-78
2023/05/05 02:52:35;;;;;;;16.70;11.97;;;15.20;99.90;;;;;;4909622;29;20247;-78
2023/05/05 02:55:04;;;;;;;15.53;11.43;;;15.30;99.90;;;;;;4912647;29;20313;-78
2023/05/05 02:57:55;;;;;;;18.97;10.90;;;15.30;99.90;;;;;;4913067;29;20715;-79
2023/05/05 03:00:35;;;;;;;22.03;11.77;;;15.40;99.90;;;;;;4914367;29;20237;-77
2023/05/05 03:03:24;;;;;;;14.80;11.37;;;15.40;99.90;;;;;;4912534;29;20265;-78
2023/05/05 03:06:10;;;;;;;16.23;11.37;;;15.40;99.90;;;;;;4911591;29;20253;-77
2023/05/05 03:08:43;;;;;;;16.63;11.53;;;15.40;99.90;;;;;;4912997;29;20222;-76
2023/05/05 03:11:31;;;;;;;15.90;11.20;;;15.30;99.90;;;;;;4913496;29;20297;-77
2023/05/05 03:14:08;;;;;;;14.60;10.80;;;15.30;99.90;;;;;;4913386;29;20659;-78
2023/05/05 03:16:38;;;;;;;15.03;11.30;;;15.30;99.90;;;;;;4917154;29;20233;-78
2023/05/05 03:19:09;;;;;;;14.87;11.43;;;15.20;99.90;;;;;;4890148;29;20222;-78
2023/05/05 03:21:37;;;;;;;17.30;12.33;;;15.20;99.90;;;;;;4899340;29;20241;-78
2023/05/05 03:24:15;;;;;;;19.10;12.00;;;15.10;99.90;;;;;;4916469;29;20315;-78
2023/05/05 03:26:42;;;;;;;16.33;12.10;;;15.10;99.90;;;;;;4900633;29;20214;-78
2023/05/05 03:29:09;;;;;;;19.47;12.10;;;15.10;99.90;;;;;;4915947;29;20704;-78
2023/05/05 03:31:36;;;;;;;19.50;11.43;;;15.00;99.90;;;;;;4916986;29;20265;-77
2023/05/05 03:34:03;;;;;;;15.27;11.40;;;15.00;99.90;;;;;;4898829;29;20585;-78
2023/05/05 03:36:31;;;;;;;18.80;12.47;;;14.90;99.90;;;;;;4916917;29;20747;-79
2023/05/05 03:38:58;;;;;;;17.83;12.90;;;15.00;99.90;;;;;;4898904;29;20294;-77
2023/05/05 03:41:26;;;;;;;15.47;12.13;;;14.80;99.90;;;;;;4899440;29;20236;-77
2023/05/05 03:43:53;;;;;;;18.17;11.67;;;14.90;99.90;;;;;;4916162;29;20300;-79
2023/05/05 03:46:19;;;;;;;16.60;11.97;;;14.90;99.90;;;;;;4918137;29;20672;-77
2023/05/05 03:48:47;;;;;;;18.87;12.90;;;14.90;99.90;;;;;;4915117;29;20374;-78
2023/05/05 03:51:14;;;;;;;19.27;13.23;;;14.90;99.90;;;;;;4916219;29;20301;-77
2023/05/05 03:53:41;;;;;;;17.77;12.63;;;14.90;99.90;;;;;;4898054;29;20262;-78
2023/05/05 03:56:08;;;;;;;17.47;12.90;;;14.90;99.90;;;;;;4915488;29;20592;-78
2023/05/05 03:58:34;;;;;;;19.50;13.00;;;14.80;99.90;;;;;;4915461;29;20218;-77
2023/05/05 04:01:02;;;;;;;18.70;13.13;;;14.90;99.90;;;;;;4915399;29;20248;-77
2023/05/05 04:03:29;;;;;;;21.00;14.00;;;15.00;99.90;;;;;;4909308;29;20213;-78
2023/05/05 04:05:56;;;;;;;20.17;12.60;;;15.00;99.90;;;;;;4916365;29;20206;-79
2023/05/05 04:08:23;;;;;;;18.20;13.43;;;14.90;99.90;;;;;;4917450;29;20252;-80
2023/05/05 04:10:50;;;;;;;16.67;12.70;;;14.90;99.90;;;;;;4915671;29;20210;-77
2023/05/05 04:13:16;;;;;;;21.77;13.53;;;14.90;99.90;;;;;;4915639;29;20289;-78
2023/05/05 04:15:46;;;;;;;19.50;12.50;;;14.80;99.90;;;;;;4915266;29;20273;-79
2023/05/05 04:18:13;;;;;;;19.40;13.33;;;14.80;99.90;;;;;;4917440;29;20663;-77
2023/05/05 04:20:40;;;;;;;19.63;13.33;;;14.80;99.90;;;;;;4915466;29;20294;-79
2023/05/05 04:23:06;;;;;;;19.17;13.33;;;14.70;99.90;;;;;;4915356;28;20213;-79
2023/05/05 04:25:34;;;;;;;18.53;13.23;;;14.70;99.90;;;;;;4892849;29;20297;-79
2023/05/05 04:28:01;;;;;;;18.17;13.93;;;14.70;99.90;;;;;;4916861;29;20240;-77
2023/05/05 04:30:28;;;;;;;19.20;13.23;;;14.60;99.90;;;;;;4915190;29;20217;-78
2023/05/05 04:32:56;;;;;;;19.47;12.93;;;14.50;99.90;;;;;;4892083;29;20293;-80
2023/05/05 04:35:23;;;;;;;20.17;13.47;;;14.60;99.90;;;;;;4898403;29;20260;-80
2023/05/05 04:37:49;;;;;;;20.83;12.83;;;14.60;99.90;;;;;;4916179;29;20543;-78
2023/05/05 04:40:16;;;;;;;19.60;13.60;;;14.70;99.90;;;;;;4896491;29;20202;-78
2023/05/05 04:42:43;;;;;;;18.03;13.23;;;14.60;99.90;;;;;;4915015;29;20242;-78
2023/05/05 04:45:11;;;;;;;19.53;13.60;;;14.70;99.90;;;;;;4914699;29;20336;-80
2023/05/05 04:47:39;;;;;;;15.57;11.77;;;14.60;99.90;;;;;;4898268;29;20312;-79
2023/05/05 04:50:07;;;;;;;17.93;12.43;;;14.70;99.90;;;;;;4915083;29;20224;-78
2023/05/05 04:52:34;;;;;;;17.37;12.80;;;14.60;99.90;;;;;;4914989;29;20256;-79
2023/05/05 04:55:01;;;;;;;17.80;11.30;;;14.70;99.90;;;;;;4894304;29;20790;-78
2023/05/05 04:57:29;;;;;;;18.50;12.60;;;14.90;99.90;;;;;;4895860;29;20214;-78
2023/05/05 04:59:58;;;;;;;16.23;11.77;;;14.70;99.90;;;;;;4900485;29;20619;-79
2023/05/05 05:02:25;;;;;;;14.67;11.47;;;14.70;99.90;;;;;;4916292;29;20782;-79
2023/05/05 05:04:52;;;;;;;15.17;12.03;;;14.70;99.90;;;;;;4915295;29;20213;-78
2023/05/05 05:07:19;;;;;;;16.93;13.03;;;14.70;99.90;;;;;;4912365;29;20214;-78
2023/05/05 05:09:45;;;;;;;16.83;12.53;;;14.70;99.90;;;;;;4913530;29;20301;-78
2023/05/05 05:12:12;;;;;;;17.33;11.47;;;14.70;99.90;;;;;;4918474;29;20774;-78
2023/05/05 05:14:39;;;;;;;22.77;12.80;;;14.80;99.90;;;;;;4916689;29;20655;-78
2023/05/05 05:17:06;;;;;;;14.90;11.03;;;14.80;99.90;;;;;;4918915;29;20281;-77
2023/05/05 05:19:33;;;;;;;14.03;11.47;;;14.80;99.90;;;;;;4922493;29;20233;-78
2023/05/05 05:21:59;;;;;;;12.83;9.70;;;14.80;99.90;;;;;;4921350;29;20226;-77
2023/05/05 05:24:26;;;;;;;12.33;9.67;;;14.90;99.90;;;;;;4925371;29;20292;-79
2023/05/05 05:26:53;;;;;;;13.63;10.20;;;14.80;99.90;;;;;;4922710;29;20198;-78
2023/05/05 05:29:20;;;;;;;13.97;9.47;;;14.80;99.90;;;;;;4923331;29;20305;-77
2023/05/05 05:31:46;;;;;;;11.90;8.70;;;14.90;99.90;;;;;;4913648;29;20619;-77
2023/05/05 05:34:13;;;;;;;13.23;8.73;;;14.90;99.90;;;;;;4914284;29;20415;-78
2023/05/05 05:36:40;;;;;;;12.23;8.97;;;15.00;99.90;;;;;;4918623;29;20198;-79
2023/05/05 05:39:07;;;;;;;12.43;8.60;;;14.90;99.90;;;;;;4917974;29;20216;-77
2023/05/05 05:41:33;;;;;;;14.93;9.83;;;15.00;99.90;;;;;;4914094;29;20233;-78
2023/05/05 05:44:00;;;;;;;12.77;9.50;;;15.00;99.90;;;;;;4916502;29;20206;-77
2023/05/05 05:46:27;;;;;;;13.20;8.87;;;15.10;99.90;;;;;;4909206;29;20312;-76
2023/05/05 05:48:54;;;;;;;11.10;8.63;;;15.10;99.90;;;;;;4913968;29;20268;-79
2023/05/05 05:51:20;;;;;;;13.70;9.40;;;15.20;99.90;;;;;;4910060;29;20212;-79
2023/05/05 05:53:47;;;;;;;12.00;8.10;;;15.30;99.90;;;;;;4913889;29;20634;-79
2023/05/05 05:56:14;;;;;;;12.20;8.25;;;15.80;99.90;;;;;;4909057;29;20252;-79
2023/05/05 05:58:41;;;;;;;14.00;8.55;;;16.60;99.90;;;;;;4913700;29;20213;-79
2023/05/05 06:01:08;;;;;;;10.30;6.88;;;17.60;99.90;;;;;;4895916;29;20293;-80
2023/05/05 06:03:34;;;;;;;10.50;7.15;;;18.60;99.90;;;;;;4911772;29;20253;-78
2023/05/05 06:06:01;;;;;;;10.05;6.97;;;19.50;99.90;;;;;;4910640;29;20213;-79
2023/05/05 06:08:28;;;;;;;9.88;6.90;;;20.50;99.90;;;;;;4913384;29;20249;-80
2023/05/05 06:10:55;;;;;;;10.95;5.95;;;21.40;99.90;;;;;;4910076;29;20264;-79
2023/05/05 06:13:22;;;;;;;6.45;5.35;;;22.20;99.90;;;;;;4913700;29;20260;-80
2023/05/05 06:15:48;;;;;;;9.52;6.38;;;23.00;99.90;;;;;;4909442;29;20665;-77
2023/05/05 06:18:15;;;;;;;9.13;5.55;;;23.80;99.90;;;;;;4896122;29;20233;-77
2023/05/05 06:20:42;;;;;;;7.93;5.72;;;24.10;99.90;;;;;;4913246;29;20206;-80
2023/05/05 06:23:09;;;;;;;9.68;5.68;;;24.30;99.90;;;;;;4915925;29;20571;-77
2023/05/05 06:25:36;;;;;;;6.90;5.68;;;24.70;99.90;;;;;;4912525;29;20750;-77
2023/05/05 06:28:04;;;;;;;10.48;5.82;;;25.10;99.90;;;;;;4913889;29;20683;-78
2023/05/05 06:30:31;;;;;;;8.90;5.30;;;25.50;99.90;;;;;;4894177;29;20273;-80
2023/05/05 06:32:58;;;;;;;5.40;4.80;;;25.70;99.90;;;;;;4913346;29;20523;-78
2023/05/05 06:35:25;;;;;;;7.10;4.70;;;26.10;99.90;;;;;;4912504;29;20293;-79
2023/05/05 06:37:52;;;;;;;6.70;5.07;;;26.40;99.90;;;;;;4913087;29;20245;-80
2023/05/05 06:40:19;;;;;;;6.40;4.53;;;26.40;99.90;;;;;;4905856;29;20276;-81
2023/05/05 06:42:46;;;;;;;9.18;4.57;;;26.70;99.90;;;;;;4913119;29;20596;-79
2023/05/05 06:45:13;;;;;;;6.80;4.88;;;26.90;99.90;;;;;;4905532;29;20306;-78
2023/05/05 06:47:41;;;;;;;8.00;4.95;;;26.90;99.90;;;;;;4909526;29;20210;-79
2023/05/05 06:50:08;;;;;;;5.60;4.32;;;27.10;99.90;;;;;;4911855;29;20210;-79
2023/05/05 06:52:35;;;;;;;7.15;4.45;;;27.50;99.90;;;;;;4911907;29;20217;-78
2023/05/05 06:55:03;;;;;;;7.07;4.43;;;27.60;99.90;;;;;;4911046;29;20886;-79
2023/05/05 06:57:30;;;;;;;5.80;4.50;;;27.60;99.90;;;;;;4911902;29;20214;-79
2023/05/05 06:59:56;;;;;;;7.35;4.15;;;27.60;99.90;;;;;;4912276;29;20325;-78
2023/05/05 07:02:23;;;;;;;4.85;3.95;;;27.90;99.90;;;;;;4910844;29;20948;-79
2023/05/05 07:04:54;;;;;;;5.50;4.10;;;28.10;99.90;;;;;;4894967;29;20276;-78
2023/05/05 07:07:21;;;;;;;7.82;4.38;;;28.10;99.90;;;;;;4912101;29;20655;-79
2023/05/05 07:09:48;;;;;;;5.88;3.88;;;28.20;99.90;;;;;;4912342;29;20214;-81
2023/05/05 07:12:15;;;;;;;6.65;3.75;;;28.30;99.90;;;;;;4909302;29;20209;-79
2023/05/05 07:14:42;;;;;;;5.05;3.80;;;28.40;99.90;;;;;;4912291;29;20290;-79
2023/05/05 07:17:09;;;;;;;7.95;4.15;;;28.30;99.90;;;;;;4911338;29;20318;-78
2023/05/05 07:19:36;;;;;;;5.90;3.88;;;28.30;99.90;;;;;;4915013;29;20297;-78
2023/05/05 07:22:03;;;;;;;6.78;4.10;;;28.30;99.90;;;;;;4908205;29;20232;-78
2023/05/05 07:24:30;;;;;;;4.85;3.50;;;28.80;99.90;;;;;;4912884;29;20651;-79
2023/05/05 07:26:56;;;;;;;5.03;2.92;;;28.80;99.40;;;;;;4891593;29;20210;-79
2023/05/05 07:29:23;;;;;;;5.10;2.90;;;28.70;98.80;;;;;;4912202;29;20707;-80
2023/05/05 07:31:50;;;;;;;3.90;2.47;;;28.90;98.30;;;;;;4912970;29;20210;-77
2023/05/05 07:34:17;;;;;;;5.82;3.10;;;28.80;97.20;;;;;;4914580;29;20206;-80
2023/05/05 07:36:43;;;;;;;4.13;2.30;;;28.80;97.70;;;;;;4911803;29;20221;-80
2023/05/05 07:39:13;;;;;;;3.55;2.38;;;28.90;97.30;;;;;;4916455;29;20230;-80
2023/05/05 07:41:41;;;;;;;4.63;2.30;;;28.70;97.20;;;;;;4914391;29;20252;-81
2023/05/05 07:44:08;;;;;;;2.60;1.80;;;28.70;96.90;;;;;;4917610;29;20714;-78
2023/05/05 07:46:35;;;;;;;2.05;1.58;;;28.80;96.20;;;;;;4915492;29;20212;-82
2023/05/05 07:49:02;;;;;;;3.75;2.17;;;28.80;96.00;;;;;;4912629;29;20256;-79
2023/05/05 07:51:31;;;;;;;3.13;1.40;;;29.00;96.40;;;;;;4916021;29;20213;-78
2023/05/05 07:54:00;;;;;;;2.75;1.40;;;29.10;95.40;;;;;;4898040;29;20216;-80
2023/05/05 07:56:27;;;;;;;3.47;1.73;;;29.20;94.90;;;;;;4909899;29;20225;-80
2023/05/05 07:58:54;;;;;;;3.45;1.40;;;29.10;94.70;;;;;;4912053;29;20202;-79
2023/05/05 08:01:25;;;;;;;2.60;1.60;;;29.00;94.60;;;;;;4917088;29;20234;-81
2023/05/05 08:03:52;;;;;;;3.17;1.48;;;29.10;94.10;;;;;;4919668;29;20221;-80
2023/05/05 08:06:20;;;;;;;4.07;1.65;;;29.00;94.10;;;;;;4912568;29;20663;-81
2023/05/05 08:08:48;;;;;;;3.55;1.30;;;28.90;94.10;;;;;;4918756;29;20206;-81
2023/05/05 08:11:15;;;;;;;5.18;1.20;;;28.90;93.90;;;;;;4916514;29;20265;-78
2023/05/05 08:13:43;;;;;;;9.77;1.58;;;28.90;93.60;;;;;;4917517;29;20210;-79
2023/05/05 08:16:13;;;;;;;3.00;1.45;;;28.70;94.10;;;;;;4904878;29;20254;-79
2023/05/05 08:18:40;;;;;;;2.65;1.30;;;28.70;93.60;;;;;;4914717;29;20225;-80
2023/05/05 08:21:09;;;;;;;3.58;1.30;;;28.60;93.20;;;;;;4916236;29;20293;-81
2023/05/05 08:23:37;;;;;;;3.50;1.80;;;28.40;93.50;;;;;;4891761;29;20262;-80
2023/05/05 08:26:05;;;;;;;3.30;1.58;;;28.30;93.60;;;;;;4901170;29;20667;-81
2023/05/05 08:28:34;;;;;;;2.80;1.30;;;28.30;93.30;;;;;;4911733;29;20588;-79
2023/05/05 08:31:05;;;;;;;4.60;1.50;;;28.30;93.40;;;;;;4913464;29;20462;-81
2023/05/05 08:33:32;;;;;;;1.63;1.13;;;28.80;92.50;;;;;;4912180;29;20217;-81
2023/05/05 08:35:59;;;;;;;2.97;1.55;;;28.70;92.50;;;;;;4895085;29;20625;-82
2023/05/05 08:38:27;;;;;;;1.58;1.05;;;28.50;92.60;;;;;;4898268;29;20201;-81
2023/05/05 08:40:54;;;;;;;2.63;1.45;;;28.50;93.20;;;;;;4914464;29;20675;-81
2023/05/05 08:43:22;;;;;;;2.10;1.55;;;28.60;92.60;;;;;;4912334;29;20706;-80
2023/05/05 08:45:50;;;;;;;3.20;1.45;;;28.40;92.50;;;;;;4913880;29;20245;-81
2023/05/05 08:48:22;;;;;;;3.33;1.27;;;28.50;93.00;;;;;;4917352;29;20213;-79
2023/05/05 08:50:53;;;;;;;2.15;1.40;;;28.60;92.90;;;;;;4912635;29;20707;-80
2023/05/05 08:53:47;;;;;;;2.35;1.50;;;28.50;92.80;;;;;;4914494;29;20597;-79
2023/05/05 08:56:14;;;;;;;3.50;2.03;;;28.20;92.60;;;;;;4912636;29;20699;-79
2023/05/05 08:58:43;;;;;;;3.22;1.30;;;27.80;92.60;;;;;;4897930;29;20202;-79
2023/05/05 09:01:13;;;;;;;3.33;1.25;;;27.30;93.20;;;;;;4915969;29;20210;-80
2023/05/05 09:03:40;;;;;;;1.30;1.00;;;26.80;93.90;;;;;;4916883;29;20233;-81
2023/05/05 09:06:08;;;;;;;2.92;0.90;;;26.80;94.00;;;;;;4911438;29;20300;-84
2023/05/05 09:08:38;;;;;;;2.85;1.35;;;26.70;93.90;;;;;;4916373;29;20224;-85
2023/05/05 09:11:06;;;;;;;19.50;2.33;;;27.10;94.10;;;;;;4916568;29;20210;-81
2023/05/05 09:13:33;;;;;;;57.80;5.88;;;27.10;93.90;;;;;;4922138;29;20630;-81
2023/05/05 09:16:03;;;;;;;5.00;1.20;;;27.00;93.80;;;;;;4912196;29;20241;-80
2023/05/05 09:18:30;;;;;;;27.48;2.72;;;26.80;93.30;;;;;;4916468;29;20955;-81
2023/05/05 09:20:57;;;;;;;4.57;1.25;;;27.30;92.90;;;;;;4917568;29;20213;-82
2023/05/05 09:23:25;;;;;;;4.22;1.48;;;26.80;93.40;;;;;;4904532;29;20473;-80
2023/05/05 09:26:07;;;;;;;2.25;1.20;;;26.70;93.10;;;;;;4918567;29;20257;-79
2023/05/05 09:28:35;;;;;;;2.13;1.08;;;26.00;93.50;;;;;;4895627;29;20210;-80
2023/05/05 09:31:14;;;;;;;3.05;1.30;;;25.40;94.10;;;;;;4897016;29;20316;-78
2023/05/05 09:33:41;;;;;;;3.20;1.40;;;25.10;94.60;;;;;;4916714;29;20229;-78
2023/05/05 09:36:08;;;;;;;4.80;1.20;;;24.90;95.10;;;;;;4908413;29;20228;-79
2023/05/05 09:38:35;;;;;;;7.40;1.63;;;24.70;95.70;;;;;;4895377;29;20249;-77
2023/05/05 09:41:04;;;;;;;6.28;1.70;;;24.70;96.00;;;;;;4912707;29;20210;-76
2023/05/05 09:43:48;;;;;;;2.83;1.15;;;24.50;96.10;;;;;;4911807;29;20234;-77
2023/05/05 09:46:15;;;;;;;4.20;1.83;;;24.30;95.90;;;;;;4911618;29;20214;-77
2023/05/05 09:48:42;;;;;;;1.83;1.25;;;24.20;96.30;;;;;;4915035;29;20286;-78
2023/05/05 09:51:09;;;;;;;2.08;1.13;;;24.10;96.50;;;;;;4913740;29;20229;-78
2023/05/05 09:53:40;;;;;;;3.47;1.20;;;24.10;96.80;;;;;;4915080;29;20624;-77
2023/05/05 09:56:07;;;;;;;3.47;1.80;;;24.00;97.70;;;;;;4915043;29;20651;-78
2023/05/05 09:58:34;;;;;;;3.78;1.23;;;23.90;97.80;;;;;;4910365;29;20210;-78
2023/05/05 10:01:01;;;;;;;4.05;1.25;;;23.80;97.90;;;;;;4897912;29;20221;-78
2023/05/05 10:03:28;;;;;;;3.63;1.48;;;23.80;98.00;;;;;;4913826;29;20232;-78
2023/05/05 10:05:57;;;;;;;3.58;1.30;;;23.90;98.10;;;;;;4913047;29;20209;-78
2023/05/05 10:08:26;;;;;;;3.58;1.40;;;24.10;98.10;;;;;;4913403;29;20209;-77
2023/05/05 10:11:00;;;;;;;2.83;1.30;;;24.20;98.10;;;;;;4917411;29;20240;-78
2023/05/05 10:13:28;;;;;;;5.05;1.80;;;24.30;98.10;;;;;;4906132;29;20663;-79
2023/05/05 10:15:56;;;;;;;4.35;1.60;;;24.40;98.10;;;;;;4891235;29;20222;-78
2023/05/05 10:18:25;;;;;;;4.40;1.60;;;24.30;98.00;;;;;;4913991;29;20242;-78
2023/05/05 10:21:02;;;;;;;4.70;1.73;;;24.30;98.20;;;;;;4910538;29;20639;-78
2023/05/05 10:23:46;;;;;;;3.88;1.40;;;24.10;98.30;;;;;;4912102;29;20229;-79
2023/05/05 10:26:14;;;;;;;5.85;1.55;;;23.90;98.30;;;;;;4911099;29;20210;-79
2023/05/05 10:28:53;;;;;;;3.55;1.50;;;23.80;98.60;;;;;;4917266;29;20211;-79
2023/05/05 10:31:33;;;;;;;2.90;1.20;;;23.70;98.90;;;;;;4904288;29;20594;-76
2023/05/05 10:34:08;;;;;;;3.58;1.52;;;23.60;98.90;;;;;;4907698;29;20241;-79
2023/05/05 10:36:39;;;;;;;7.25;2.30;;;23.40;99.90;;;;;;4894285;29;20734;-78
2023/05/05 10:39:08;;;;;;;5.75;1.92;;;23.40;99.90;;;;;;4912891;29;20564;-79
2023/05/05 10:41:36;;;;;;;2.85;1.45;;;23.20;99.90;;;;;;4905758;29;20234;-80
2023/05/05 10:44:05;;;;;;;5.75;2.05;;;23.10;99.90;;;;;;4912628;29;20281;-79
2023/05/05 10:46:32;;;;;;;6.03;1.70;;;23.00;99.90;;;;;;4912518;29;20272;-78
2023/05/05 10:49:23;;;;;;;6.63;1.88;;;23.00;99.90;;;;;;4912201;29;20311;-78
2023/05/05 10:52:05;;;;;;;4.68;1.65;;;23.00;99.90;;;;;;4912474;29;20205;-79
2023/05/05 10:54:48;;;;;;;3.83;1.60;;;23.00;99.90;;;;;;4886641;29;20667;-79
2023/05/05 10:57:20;;;;;;;4.30;1.80;;;23.10;99.90;;;;;;4910940;29;20214;-79
2023/05/05 10:59:49;;;;;;;4.55;1.73;;;22.90;99.90;;;;;;4902174;29;20238;-79
2023/05/05 11:02:27;;;;;;;2.90;1.88;;;22.90;99.90;;;;;;4896143;29;20233;-78
2023/05/05 11:05:08;;;;;;;4.35;1.90;;;22.90;99.90;;;;;;4890900;29;20225;-78
2023/05/05 11:07:36;;;;;;;3.33;1.55;;;22.90;99.90;;;;;;4894670;29;20719;-77
2023/05/05 11:10:05;;;;;;;5.43;2.28;;;23.00;99.90;;;;;;4914138;29;20267;-78
2023/05/05 11:12:58;;;;;;;2.80;1.90;;;23.20;99.90;;;;;;4911730;29;20205;-78
2023/05/05 11:15:28;;;;;;;4.82;2.10;;;23.40;99.90;;;;;;4889244;29;20233;-78
2023/05/05 11:18:01;;;;;;;4.75;1.90;;;23.60;99.90;;;;;;4901447;29;20213;-80
2023/05/05 11:20:40;;;;;;;3.67;2.10;;;23.80;99.90;;;;;;4896666;29;20488;-79
2023/05/05 11:23:07;;;;;;;4.22;2.38;;;24.10;99.90;;;;;;4892387;29;20292;-80
2023/05/05 11:25:40;;;;;;;5.80;2.60;;;24.00;99.90;;;;;;4913033;29;20222;-78
2023/05/05 11:28:16;;;;;;;3.38;1.10;;;24.10;99.90;;;;;;4912672;29;20281;-80
2023/05/05 11:30:55;;;;;;;1.10;0.60;;;23.90;99.90;;;;;;4896141;29;20222;-79
2023/05/05 11:33:27;;;;;;;2.75;0.50;;;23.00;99.90;;;;;;4906027;29;20206;-78
2023/05/05 11:35:59;;;;;;;1.55;0.40;;;22.30;99.90;;;;;;4902966;29;20217;-79
2023/05/05 11:38:35;;;;;;;1.02;0.50;;;21.50;99.90;;;;;;4908206;29;20292;-80
2023/05/05 11:41:29;;;;;;;3.92;0.40;;;21.10;99.90;;;;;;4901630;29;20666;-78
2023/05/05 11:44:16;;;;;;;2.28;0.60;;;20.50;99.90;;;;;;4919390;29;20289;-78
2023/05/05 11:46:52;;;;;;;0.60;0.60;;;20.00;99.90;;;;;;4917454;29;20209;-80
2023/05/05 11:49:33;;;;;;;0.50;0.50;;;19.60;99.90;;;;;;4904273;29;20206;-79
2023/05/05 11:52:02;;;;;;;1.98;0.60;;;19.40;99.90;;;;;;4921266;29;20287;-80
2023/05/05 11:54:30;;;;;;;1.10;0.60;;;19.10;99.90;;;;;;4924796;29;20237;-79
2023/05/05 11:57:01;;;;;;;2.92;1.00;;;18.80;99.90;;;;;;4925499;29;20212;-79
2023/05/05 11:59:27;;;;;;;3.05;0.82;;;18.50;99.90;;;;;;4924171;29;20668;-81
2023/05/05 12:01:54;;;;;;;2.35;0.90;;;18.40;99.90;;;;;;4919781;29;20234;-79
2023/05/05 12:04:21;;;;;;;2.63;0.88;;;18.10;99.90;;;;;;4922499;29;20316;-79
2023/05/05 12:06:49;;;;;;;2.13;1.00;;;17.80;99.90;;;;;;4923402;29;20205;-80
2023/05/05 12:09:21;;;;;;;1.80;0.90;;;17.60;99.90;;;;;;4902595;29;20288;-80
2023/05/05 12:11:48;;;;;;;4.70;1.60;;;17.30;99.90;;;;;;4920713;29;20252;-80
2023/05/05 12:14:15;;;;;;;2.10;1.20;;;17.00;99.90;;;;;;4920560;29;20221;-77
2023/05/05 12:16:52;;;;;;;3.65;1.15;;;16.70;99.90;;;;;;4913190;29;20249;-81
2023/05/05 12:19:28;;;;;;;1.43;1.20;;;16.60;99.90;;;;;;4912589;29;20632;-78
2023/05/05 12:21:56;;;;;;;1.70;1.10;;;16.60;99.90;;;;;;4916245;29;20194;-78
2023/05/05 12:24:22;;;;;;;2.47;1.60;;;16.40;99.90;;;;;;4915450;29;20226;-79
2023/05/05 12:26:50;;;;;;;3.57;1.43;;;16.50;99.90;;;;;;4913837;29;20210;-78
2023/05/05 12:29:27;;;;;;;1.80;1.20;;;16.40;99.90;;;;;;4919275;29;20670;-78
2023/05/05 12:31:56;;;;;;;2.60;1.30;;;16.10;99.90;;;;;;4921439;29;20209;-79
2023/05/05 12:34:24;;;;;;;3.07;1.20;;;16.00;99.90;;;;;;4917614;29;20197;-79
2023/05/05 12:36:51;;;;;;;2.17;1.27;;;16.10;99.90;;;;;;4921620;29;20252;-79
2023/05/05 12:39:17;;;;;;;5.60;1.50;;;16.50;99.90;;;;;;4916647;29;20224;-77
2023/05/05 12:41:45;;;;;;;3.73;1.73;;;16.20;99.90;;;;;;4913923;29;21080;-77
2023/05/05 12:44:13;;;;;;;3.87;1.90;;;16.20;99.90;;;;;;4899535;29;20652;-77
2023/05/05 12:46:47;;;;;;;3.73;1.97;;;16.30;99.90;;;;;;4901392;29;20202;-75
2023/05/05 12:49:16;;;;;;;2.60;1.50;;;16.20;99.90;;;;;;4911678;29;20224;-75
2023/05/05 12:51:54;;;;;;;5.10;1.70;;;16.20;99.90;;;;;;4911409;29;20210;-75